Time;durP1;ratioP1;P1;durP2;ratioP2;P2;SDS_P1;SDS_P2;PMS_P1;PMS_P2;Temp;Humidity;BMP_temperature;BMP_pressure;BME280_temperature;BME280_humidity;BME280_pressure;Samples;Min_cycle;Max_cycle;Signal;HPM_P1;HPM_P2
2022/12/11 00:01:37;;;;;;;15.60;5.00;;;15.70;99.90;;;;;;5034226;28;20499;-66
2022/12/11 00:04:41;;;;;;;16.38;5.70;;;15.60;99.90;;;;;;5034527;28;20492;-67
2022/12/11 00:07:45;;;;;;;23.13;8.48;;;15.60;99.90;;;;;;5034028;28;20041;-67
2022/12/11 00:10:49;;;;;;;16.90;6.07;;;15.60;99.90;;;;;;5034110;28;20052;-66
2022/12/11 00:13:53;;;;;;;16.75;4.47;;;15.60;99.90;;;;;;5034190;28;20048;-66
2022/12/11 00:16:58;;;;;;;13.30;3.78;;;15.60;99.90;;;;;;5034028;28;20041;-66
2022/12/11 00:20:02;;;;;;;8.07;3.15;;;15.70;99.90;;;;;;5034193;28;20044;-67
2022/12/11 00:23:07;;;;;;;11.85;3.55;;;15.70;99.90;;;;;;5033844;28;20049;-67
2022/12/11 00:26:14;;;;;;;16.75;2.83;;;15.70;99.90;;;;;;5033648;28;20032;-66
2022/12/11 00:29:18;;;;;;;16.67;3.70;;;15.70;99.90;;;;;;5033846;28;20040;-66
2022/12/11 00:32:22;;;;;;;13.40;3.85;;;15.70;99.90;;;;;;5033872;28;20044;-67
2022/12/11 00:35:25;;;;;;;13.40;3.85;;;15.70;99.90;;;;;;5033595;28;20109;-67
2022/12/11 00:38:29;;;;;;;12.45;3.63;;;15.70;99.90;;;;;;5033791;28;20448;-66
2022/12/11 00:41:33;;;;;;;6.55;2.63;;;15.70;99.90;;;;;;5033236;28;20056;-67
2022/12/11 00:44:37;;;;;;;10.07;2.75;;;15.70;99.90;;;;;;5033434;28;20044;-67
2022/12/11 00:47:41;;;;;;;4.30;2.03;;;15.60;99.90;;;;;;5044212;28;20045;-68
2022/12/11 00:50:45;;;;;;;7.80;2.45;;;15.60;99.90;;;;;;5033559;28;20048;-66
2022/12/11 00:53:49;;;;;;;8.93;3.03;;;15.60;99.90;;;;;;5033200;28;20052;-68
2022/12/11 00:56:54;;;;;;;6.20;2.10;;;15.60;99.90;;;;;;5033035;28;20056;-66
2022/12/11 00:59:58;;;;;;;7.40;1.90;;;15.60;99.90;;;;;;5033100;28;20044;-68
2022/12/11 01:03:02;;;;;;;96.68;53.42;;;15.60;99.90;;;;;;5033323;28;20048;-67
2022/12/11 01:06:07;;;;;;;30.95;19.83;;;15.60;99.90;;;;;;5032890;28;20041;-67
2022/12/11 01:12:33;;;;;;;10.70;2.70;;;15.50;99.90;;;;;;5033299;28;20048;-66
2022/12/11 01:15:40;;;;;;;5.40;2.05;;;15.50;99.90;;;;;;5032925;28;20052;-66
2022/12/11 01:18:44;;;;;;;10.77;1.70;;;15.50;99.90;;;;;;5033140;28;20048;-65
2022/12/11 01:21:48;;;;;;;7.28;2.53;;;15.40;99.90;;;;;;5032868;28;20040;-67
2022/12/11 01:24:52;;;;;;;7.25;1.40;;;15.40;99.90;;;;;;5032971;28;20053;-66
2022/12/11 01:27:56;;;;;;;8.57;1.25;;;15.40;99.90;;;;;;5033054;28;20052;-67
2022/12/11 01:31:00;;;;;;;6.88;1.40;;;15.40;99.90;;;;;;5032709;28;20216;-68
2022/12/11 01:34:04;;;;;;;7.22;1.80;;;15.40;99.90;;;;;;5032578;28;20060;-67
2022/12/11 01:37:08;;;;;;;9.15;1.60;;;15.30;99.90;;;;;;5032655;28;20048;-66
2022/12/11 01:40:17;;;;;;;7.97;1.50;;;15.30;99.90;;;;;;5032610;28;20045;-66
2022/12/11 01:43:21;;;;;;;6.20;1.58;;;15.30;99.90;;;;;;5032299;28;20047;-67
2022/12/11 01:46:27;;;;;;;4.75;1.50;;;15.20;99.90;;;;;;5032536;28;20040;-66
2022/12/11 01:49:30;;;;;;;10.75;1.77;;;15.20;99.90;;;;;;5032325;28;20060;-67
2022/12/11 01:52:35;;;;;;;6.20;1.70;;;15.20;99.90;;;;;;5032207;28;20041;-67
2022/12/11 01:55:40;;;;;;;5.97;1.85;;;15.20;99.90;;;;;;5031960;28;20056;-67
2022/12/11 01:58:50;;;;;;;7.10;1.77;;;15.10;99.90;;;;;;5032250;28;20038;-67
2022/12/11 02:02:21;;;;;;;7.05;1.90;;;15.10;99.90;;;;;;5032567;28;20061;-67
2022/12/11 02:05:25;;;;;;;9.73;2.30;;;15.10;99.90;;;;;;5035524;28;20041;-67
2022/12/11 02:08:30;;;;;;;5.63;1.73;;;15.10;99.90;;;;;;5031904;28;20064;-67
2022/12/11 02:11:42;;;;;;;7.25;1.83;;;15.10;99.90;;;;;;5031974;28;20040;-67
2022/12/11 02:14:58;;;;;;;5.82;2.30;;;15.10;99.90;;;;;;5031850;28;20052;-67
2022/12/11 02:18:13;;;;;;;5.15;2.25;;;15.10;99.90;;;;;;5031669;28;20037;-67
2022/12/11 02:21:25;;;;;;;6.15;2.10;;;15.10;99.90;;;;;;5030726;28;20052;-66
2022/12/11 02:25:02;;;;;;;10.88;2.13;;;15.10;99.90;;;;;;5032052;28;20059;-67
2022/12/11 02:28:52;;;;;;;11.75;2.38;;;15.10;99.90;;;;;;5031724;28;20045;-67
2022/12/11 02:32:01;;;;;;;10.40;2.47;;;15.00;99.90;;;;;;5031848;28;20048;-67
2022/12/11 02:35:29;;;;;;;9.55;2.30;;;15.00;99.90;;;;;;5031612;28;20041;-68
2022/12/11 02:38:38;;;;;;;22.80;2.63;;;15.00;99.90;;;;;;5031530;28;20044;-67
2022/12/11 02:41:48;;;;;;;11.75;2.10;;;15.00;99.90;;;;;;5031637;28;20409;-66
2022/12/11 02:44:53;;;;;;;12.95;2.00;;;15.00;99.90;;;;;;5031508;28;20500;-66
2022/12/11 02:48:01;;;;;;;8.98;2.45;;;15.00;99.90;;;;;;5042349;28;20508;-67
2022/12/11 02:51:08;;;;;;;9.68;2.00;;;15.10;99.90;;;;;;5031357;28;20048;-66
2022/12/11 02:54:20;;;;;;;6.93;2.10;;;15.10;99.90;;;;;;5031231;28;20524;-67
2022/12/11 02:57:27;;;;;;;7.38;2.33;;;15.10;99.90;;;;;;5031483;28;20044;-67
2022/12/11 03:00:31;;;;;;;10.18;1.80;;;15.10;99.90;;;;;;5030975;28;20044;-67
2022/12/11 03:03:35;;;;;;;15.57;2.17;;;15.10;99.90;;;;;;5030846;28;20068;-67
2022/12/11 03:06:45;;;;;;;13.93;2.72;;;15.10;99.90;;;;;;5031143;28;20056;-67
2022/12/11 03:09:49;;;;;;;13.68;2.50;;;15.10;99.90;;;;;;5031097;28;20212;-66
2022/12/11 03:12:56;;;;;;;15.55;2.78;;;15.00;99.90;;;;;;5031187;28;20049;-65
2022/12/11 03:16:42;;;;;;;18.30;3.47;;;15.00;99.90;;;;;;5030930;28;20420;-67
2022/12/11 03:20:12;;;;;;;18.52;3.58;;;15.00;99.90;;;;;;5024593;28;20060;-67
2022/12/11 03:23:22;;;;;;;19.42;3.35;;;15.10;99.90;;;;;;5028227;28;20076;-66
2022/12/11 03:26:29;;;;;;;30.73;4.32;;;15.10;99.90;;;;;;5030810;28;20041;-66
2022/12/11 03:29:50;;;;;;;23.88;4.60;;;15.10;99.90;;;;;;5030917;28;20064;-66
2022/12/11 03:33:01;;;;;;;25.25;3.72;;;15.00;99.90;;;;;;5032689;28;20052;-67
2022/12/11 03:36:07;;;;;;;;;;;15.00;99.90;;;;;;5035385;28;20068;-68
2022/12/11 03:39:38;;;;;;;20.35;4.07;;;15.00;99.90;;;;;;5045364;28;20284;-67
2022/12/11 03:42:44;;;;;;;;;;;15.00;99.90;;;;;;5035120;28;20107;-67
2022/12/11 03:45:49;;;;;;;28.90;5.15;;;15.00;99.90;;;;;;5034647;28;19916;-67
2022/12/11 03:48:58;;;;;;;32.53;5.50;;;14.90;99.90;;;;;;5034710;28;20048;-67
2022/12/11 03:52:05;;;;;;;43.78;5.90;;;15.00;99.90;;;;;;5034507;28;20048;-66
2022/12/11 03:55:12;;;;;;;25.80;5.63;;;15.00;99.90;;;;;;5034333;28;20499;-67
2022/12/11 03:58:16;;;;;;;52.40;6.68;;;15.00;99.90;;;;;;5034722;28;20049;-66
2022/12/11 04:01:20;;;;;;;39.58;5.93;;;15.00;99.90;;;;;;5034658;28;20508;-67
2022/12/11 04:04:24;;;;;;;44.60;7.75;;;15.00;99.90;;;;;;5034413;28;20060;-67
2022/12/11 04:07:30;;;;;;;39.38;6.53;;;15.00;99.90;;;;;;5034162;28;20045;-66
2022/12/11 04:10:33;;;;;;;45.67;7.22;;;15.00;99.90;;;;;;5034250;28;20048;-66
2022/12/11 04:13:38;;;;;;;48.78;7.65;;;14.90;99.90;;;;;;5034099;28;20041;-66
2022/12/11 04:16:42;;;;;;;52.60;7.47;;;15.00;99.90;;;;;;5034051;28;20052;-67
2022/12/11 04:26:38;;;;;;;44.33;7.13;;;15.00;99.90;;;;;;5034053;28;20048;-67
2022/12/11 04:29:42;;;;;;;48.60;8.07;;;14.70;99.90;;;;;;5033757;28;20508;-67
2022/12/11 04:32:47;;;;;;;53.42;6.93;;;15.00;99.90;;;;;;5033992;28;20043;-67
2022/12/11 04:35:50;;;;;;;50.00;6.72;;;15.00;99.90;;;;;;5033877;28;20044;-66
2022/12/11 04:38:55;;;;;;;44.00;7.40;;;15.00;99.90;;;;;;5044488;28;20049;-67
2022/12/11 04:41:59;;;;;;;43.38;7.93;;;15.00;99.90;;;;;;5033785;28;20504;-67
2022/12/11 04:45:04;;;;;;;40.13;7.15;;;15.00;99.90;;;;;;5032998;28;20053;-66
2022/12/11 04:48:08;;;;;;;46.25;7.55;;;15.00;99.90;;;;;;5033353;28;20067;-67
2022/12/11 04:51:13;;;;;;;44.00;8.85;;;15.00;99.90;;;;;;5033207;28;20064;-67
2022/12/11 04:54:17;;;;;;;44.35;6.85;;;15.00;99.90;;;;;;5033571;28;20060;-66
2022/12/11 04:57:21;;;;;;;41.80;6.95;;;15.00;99.90;;;;;;5033554;28;20049;-67
2022/12/11 05:00:26;;;;;;;48.28;7.05;;;15.00;99.90;;;;;;5033477;28;20393;-67
2022/12/11 05:03:29;;;;;;;44.30;6.63;;;15.00;99.90;;;;;;5032971;28;20113;-67
2022/12/11 05:06:33;;;;;;;44.75;8.05;;;15.00;99.90;;;;;;5037183;28;20048;-67
2022/12/11 05:09:37;;;;;;;46.15;6.57;;;15.00;99.90;;;;;;5033017;28;20045;-66
2022/12/11 05:12:41;;;;;;;44.00;7.03;;;15.00;99.90;;;;;;5032900;28;20048;-67
2022/12/11 05:15:45;;;;;;;41.20;6.72;;;15.00;99.90;;;;;;5032978;28;20053;-66
2022/12/11 05:18:49;;;;;;;51.40;7.18;;;14.90;99.90;;;;;;5033049;28;20041;-65
2022/12/11 05:21:53;;;;;;;51.83;6.95;;;15.00;99.90;;;;;;5033012;28;20044;-66
2022/12/11 05:24:57;;;;;;;40.63;5.90;;;15.00;99.90;;;;;;5032844;28;20048;-65
2022/12/11 05:28:00;;;;;;;40.90;7.00;;;15.00;99.90;;;;;;5032888;28;20503;-67
2022/12/11 05:31:16;;;;;;;44.15;6.70;;;15.00;99.90;;;;;;5032924;28;20056;-66
2022/12/11 05:34:20;;;;;;;48.35;7.20;;;15.00;99.90;;;;;;5032596;28;20048;-66
2022/12/11 05:37:23;;;;;;;50.97;7.60;;;15.00;99.90;;;;;;5032680;28;20040;-66
2022/12/11 05:40:27;;;;;;;45.10;7.18;;;15.10;99.90;;;;;;5032790;28;20052;-67
2022/12/11 05:43:33;;;;;;;54.25;7.20;;;15.10;99.90;;;;;;5032499;28;20053;-67
2022/12/11 05:46:38;;;;;;;41.50;6.35;;;15.00;99.90;;;;;;5032456;28;20503;-67
2022/12/11 05:49:43;;;;;;;43.83;6.72;;;15.00;99.90;;;;;;5032527;28;20048;-66
2022/12/11 05:52:47;;;;;;;46.13;7.05;;;15.00;99.90;;;;;;5032443;28;20045;-67
2022/12/11 05:55:51;;;;;;;34.38;5.88;;;15.00;99.90;;;;;;5031831;28;20069;-67
2022/12/11 05:58:56;;;;;;;36.42;6.70;;;15.00;99.90;;;;;;5032209;28;20053;-67
2022/12/11 06:02:00;;;;;;;41.42;6.85;;;15.00;99.90;;;;;;5031972;28;20044;-67
2022/12/11 06:05:05;;;;;;;36.58;6.80;;;15.00;99.90;;;;;;5031718;28;20045;-67
2022/12/11 06:08:09;;;;;;;49.35;7.13;;;15.00;99.90;;;;;;5031815;28;20045;-66
2022/12/11 06:11:13;;;;;;;45.78;7.63;;;15.00;99.90;;;;;;5032056;28;20056;-66
2022/12/11 06:14:17;;;;;;;44.17;7.22;;;15.00;99.90;;;;;;5031662;28;20040;-67
2022/12/11 06:17:21;;;;;;;42.92;7.22;;;14.90;99.90;;;;;;5031532;28;20044;-68
2022/12/11 06:20:25;;;;;;;60.78;7.20;;;14.90;99.90;;;;;;5031646;28;20401;-67
2022/12/11 06:23:29;;;;;;;47.15;7.57;;;14.90;99.90;;;;;;5031576;28;20061;-66
2022/12/11 06:26:32;;;;;;;49.00;7.07;;;14.90;99.90;;;;;;5031699;28;20056;-66
2022/12/11 06:29:36;;;;;;;42.53;7.07;;;14.90;99.90;;;;;;5031469;28;20044;-66
2022/12/11 06:32:41;;;;;;;47.83;8.48;;;14.80;99.90;;;;;;5031367;28;20053;-68
2022/12/11 06:35:45;;;;;;;43.63;6.97;;;14.80;99.90;;;;;;5030696;28;20105;-66
2022/12/11 06:38:49;;;;;;;46.83;8.23;;;14.70;99.90;;;;;;5031302;28;20044;-67
2022/12/11 06:41:55;;;;;;;46.35;8.02;;;14.70;99.90;;;;;;5031421;28;20041;-67
2022/12/11 06:44:59;;;;;;;49.20;8.88;;;14.70;99.90;;;;;;5031527;28;20524;-67
2022/12/11 06:48:03;;;;;;;48.42;8.55;;;14.70;99.90;;;;;;5031481;28;20109;-67
2022/12/11 06:51:09;;;;;;;52.10;7.70;;;14.70;99.90;;;;;;5031153;28;20057;-65
2022/12/11 06:54:12;;;;;;;43.30;8.20;;;14.70;99.90;;;;;;5030919;28;20052;-67
2022/12/11 06:57:17;;;;;;;42.22;6.80;;;14.70;99.90;;;;;;5030349;28;20068;-67
2022/12/11 07:00:21;;;;;;;46.45;7.45;;;14.70;99.90;;;;;;5031201;28;20287;-67
2022/12/11 07:03:25;;;;;;;42.42;6.40;;;14.70;99.90;;;;;;5031118;28;20429;-66
2022/12/11 07:06:30;;;;;;;48.47;7.70;;;14.80;99.90;;;;;;5041555;28;20049;-68
2022/12/11 07:09:35;;;;;;;38.85;6.15;;;14.80;99.90;;;;;;5030496;28;20212;-67
2022/12/11 07:12:39;;;;;;;43.00;7.50;;;14.80;99.90;;;;;;5031324;28;20048;-67
2022/12/11 07:15:43;;;;;;;34.83;7.30;;;14.90;99.90;;;;;;5030956;28;20123;-67
2022/12/11 07:18:49;;;;;;;48.40;8.30;;;14.90;99.90;;;;;;5031238;28;20048;-67
2022/12/11 07:21:54;;;;;;;42.97;6.60;;;15.00;99.90;;;;;;5030907;28;20040;-68
2022/12/11 07:24:58;;;;;;;48.00;7.35;;;15.00;99.90;;;;;;5031076;28;20052;-67
2022/12/11 07:28:01;;;;;;;42.78;7.45;;;15.00;99.90;;;;;;5030978;28;20040;-68
2022/12/11 07:31:16;;;;;;;34.45;6.95;;;15.00;99.90;;;;;;5030911;28;20044;-68
2022/12/11 07:34:20;;;;;;;46.63;6.93;;;15.00;99.90;;;;;;5030918;28;20572;-66
2022/12/11 07:37:24;;;;;;;52.00;6.88;;;15.00;99.90;;;;;;5030828;28;20052;-67
2022/12/11 07:40:28;;;;;;;43.13;7.30;;;15.10;99.90;;;;;;5030906;28;20041;-67
2022/12/11 07:43:34;;;;;;;45.67;6.65;;;15.10;99.90;;;;;;5030539;28;20056;-67
2022/12/11 07:46:38;;;;;;;45.38;9.35;;;15.20;99.90;;;;;;5029220;28;20303;-69
2022/12/11 07:49:42;;;;;;;48.75;7.15;;;15.30;99.90;;;;;;5029769;28;20061;-69
2022/12/11 07:52:46;;;;;;;34.20;7.53;;;15.30;99.90;;;;;;5030820;28;20060;-70
2022/12/11 07:55:50;;;;;;;31.50;6.70;;;15.50;99.90;;;;;;5029421;28;20216;-70
2022/12/11 07:58:54;;;;;;;39.40;7.15;;;15.60;99.90;;;;;;5030756;28;20052;-68
2022/12/11 08:01:58;;;;;;;35.72;8.38;;;15.70;99.90;;;;;;5031208;28;20056;-69
2022/12/11 08:05:03;;;;;;;42.58;6.82;;;15.90;99.90;;;;;;5031393;28;20064;-71
2022/12/11 08:08:07;;;;;;;32.95;6.47;;;16.10;99.90;;;;;;5030841;28;20056;-69
2022/12/11 08:11:13;;;;;;;33.65;7.90;;;16.20;99.90;;;;;;5030775;28;20072;-69
2022/12/11 08:14:18;;;;;;;34.40;6.35;;;16.40;99.90;;;;;;5030640;28;20389;-68
2022/12/11 08:17:22;;;;;;;36.72;7.28;;;16.50;99.90;;;;;;5030768;28;20536;-69
2022/12/11 08:20:26;;;;;;;27.13;4.88;;;16.70;99.90;;;;;;5034131;28;20036;-68
2022/12/11 08:23:30;;;;;;;31.60;6.65;;;16.70;99.90;;;;;;5033885;28;20060;-68
2022/12/11 08:26:34;;;;;;;28.08;6.25;;;16.70;99.90;;;;;;5034267;28;20396;-69
2022/12/11 08:29:38;;;;;;;36.78;6.80;;;16.80;99.90;;;;;;5034175;28;20056;-68
2022/12/11 08:32:42;;;;;;;29.00;6.43;;;16.70;99.90;;;;;;5033850;28;20404;-69
2022/12/11 08:35:46;;;;;;;44.28;7.32;;;16.70;99.90;;;;;;5032815;28;20052;-68
2022/12/11 08:38:51;;;;;;;36.03;7.20;;;16.70;99.90;;;;;;5033441;28;20310;-67
2022/12/11 08:41:56;;;;;;;37.53;6.85;;;16.60;99.90;;;;;;5033732;28;20045;-69
2022/12/11 08:44:59;;;;;;;37.75;7.13;;;16.60;99.90;;;;;;5033370;28;20413;-69
2022/12/11 08:48:04;;;;;;;40.55;7.55;;;16.50;99.90;;;;;;5033500;28;20048;-68
2022/12/11 08:51:12;;;;;;;40.38;7.65;;;16.50;99.90;;;;;;5033809;28;20056;-68
2022/12/11 08:54:16;;;;;;;35.35;6.63;;;16.40;99.90;;;;;;5033145;28;20044;-69
2022/12/11 08:57:19;;;;;;;42.95;9.23;;;16.30;99.80;;;;;;5033413;28;20048;-68
2022/12/11 09:00:23;;;;;;;39.78;8.48;;;16.30;99.50;;;;;;5033316;28;20044;-70
2022/12/11 09:03:27;;;;;;;46.60;8.80;;;16.30;99.40;;;;;;5033227;28;20591;-69
2022/12/11 09:06:32;;;;;;;43.95;7.97;;;16.20;99.20;;;;;;5033306;28;20392;-68
2022/12/11 09:09:36;;;;;;;33.88;6.88;;;16.20;99.70;;;;;;5033469;28;20492;-67
2022/12/11 09:12:40;;;;;;;42.75;9.00;;;16.20;99.40;;;;;;5033097;28;20040;-68
2022/12/11 09:15:44;;;;;;;32.35;6.50;;;16.20;99.30;;;;;;5033022;28;20431;-68
2022/12/11 09:18:49;;;;;;;41.55;8.85;;;16.20;98.70;;;;;;5043646;28;20049;-68
2022/12/11 09:21:53;;;;;;;38.10;6.55;;;16.10;98.50;;;;;;5032771;28;20408;-69
2022/12/11 09:24:57;;;;;;;37.70;6.07;;;16.10;98.70;;;;;;5032963;28;20056;-69
2022/12/11 09:28:01;;;;;;;36.88;7.00;;;16.10;98.80;;;;;;5032587;28;20037;-67
2022/12/11 09:31:15;;;;;;;33.55;6.35;;;16.10;98.50;;;;;;5032254;28;20049;-69
2022/12/11 09:34:20;;;;;;;29.85;6.45;;;16.00;98.10;;;;;;5032788;28;20045;-68
2022/12/11 09:37:24;;;;;;;37.75;7.00;;;15.90;98.10;;;;;;5032674;28;20519;-69
2022/12/11 09:40:28;;;;;;;36.92;5.88;;;16.00;98.60;;;;;;5032299;28;20047;-68
2022/12/11 09:43:45;;;;;;;42.08;8.88;;;16.20;97.80;;;;;;5032353;28;20044;-68
2022/12/11 09:46:50;;;;;;;38.20;7.50;;;16.30;97.40;;;;;;5030868;28;20060;-68
2022/12/11 09:50:04;;;;;;;33.53;5.75;;;16.30;97.30;;;;;;5030694;28;20045;-69
2022/12/11 09:53:18;;;;;;;35.40;6.07;;;16.30;96.70;;;;;;5030688;28;20053;-69
2022/12/11 09:56:38;;;;;;;29.27;6.18;;;16.40;96.50;;;;;;5031327;28;20528;-66
2022/12/11 10:00:10;;;;;;;33.67;7.28;;;16.60;96.50;;;;;;5031416;28;20052;-67
2022/12/11 10:03:30;;;;;;;36.05;7.38;;;16.90;95.50;;;;;;5032240;28;20044;-67
2022/12/11 10:07:13;;;;;;;33.80;6.60;;;17.00;95.80;;;;;;5032374;28;20052;-67
2022/12/11 10:10:30;;;;;;;25.98;6.28;;;17.10;95.20;;;;;;5031855;28;20040;-68
2022/12/11 10:13:46;;;;;;;34.00;6.85;;;17.30;95.30;;;;;;5031285;28;20045;-68
2022/12/11 10:16:56;;;;;;;22.63;5.05;;;17.60;94.80;;;;;;5032098;28;20052;-69
2022/12/11 10:20:39;;;;;;;34.50;7.25;;;17.70;93.80;;;;;;5031814;28;20044;-68
2022/12/11 10:23:49;;;;;;;34.38;5.90;;;17.70;93.40;;;;;;5030671;28;20068;-68
2022/12/11 10:26:57;;;;;;;33.25;5.50;;;17.70;93.30;;;;;;5031994;28;20044;-68
2022/12/11 10:30:07;;;;;;;32.13;6.18;;;17.60;92.90;;;;;;5031516;28;20045;-68
2022/12/11 10:33:19;;;;;;;24.95;5.10;;;17.60;92.90;;;;;;5040762;28;20064;-67
2022/12/11 10:36:37;;;;;;;27.88;6.00;;;17.80;93.10;;;;;;5030613;28;20040;-69
2022/12/11 10:39:41;;;;;;;37.38;7.15;;;18.00;92.70;;;;;;5031368;28;20059;-68
2022/12/11 10:42:53;;;;;;;42.13;10.95;;;18.00;91.90;;;;;;5030513;28;20048;-68
2022/12/11 10:46:00;;;;;;;37.25;7.50;;;18.00;91.20;;;;;;5031871;28;20499;-69
2022/12/11 10:49:03;;;;;;;29.80;7.05;;;17.90;91.10;;;;;;5031167;28;20048;-68
2022/12/11 10:52:31;;;;;;;35.95;6.68;;;17.80;91.10;;;;;;5031541;28;20116;-68
2022/12/11 10:55:54;;;;;;;30.00;5.78;;;17.70;90.70;;;;;;5029916;28;20060;-69
2022/12/11 10:58:59;;;;;;;39.03;7.47;;;17.60;90.30;;;;;;5031309;28;20135;-68
2022/12/11 11:02:25;;;;;;;37.97;6.32;;;17.50;90.70;;;;;;5030810;28;20036;-69
2022/12/11 11:05:34;;;;;;;35.50;5.20;;;17.30;91.00;;;;;;5030869;28;20048;-68
2022/12/11 11:08:44;;;;;;;26.13;4.95;;;17.10;91.30;;;;;;5029776;28;20048;-69
2022/12/11 11:11:49;;;;;;;25.47;6.47;;;17.20;90.70;;;;;;5031258;28;20037;-68
2022/12/11 11:15:02;;;;;;;33.00;4.85;;;17.10;91.00;;;;;;5030759;28;20052;-69
2022/12/11 11:18:17;;;;;;;32.22;6.47;;;17.10;90.50;;;;;;5030655;28;20389;-66
2022/12/11 11:21:24;;;;;;;25.40;6.88;;;17.20;90.30;;;;;;5030911;28;20389;-67
2022/12/11 11:24:27;;;;;;;32.08;7.22;;;17.20;90.60;;;;;;5030881;28;20061;-68
2022/12/11 11:28:08;;;;;;;29.50;5.22;;;17.10;90.00;;;;;;5029947;28;20045;-68
2022/12/11 11:31:14;;;;;;;30.92;5.90;;;16.90;89.20;;;;;;5031003;28;20048;-68
2022/12/11 11:34:24;;;;;;;25.95;5.43;;;16.70;90.50;;;;;;5030974;28;20049;-68
2022/12/11 11:37:33;;;;;;;40.88;6.18;;;16.70;90.90;;;;;;5031016;28;20044;-68
2022/12/11 11:40:56;;;;;;;30.42;5.72;;;16.60;90.90;;;;;;5030885;28;20052;-68
2022/12/11 11:44:06;;;;;;;36.47;7.47;;;16.60;90.90;;;;;;5030425;28;20060;-69
2022/12/11 11:47:18;;;;;;;38.63;7.07;;;16.60;90.60;;;;;;5030735;28;20052;-68
2022/12/11 11:50:28;;;;;;;27.92;6.93;;;16.60;90.20;;;;;;5030620;28;20409;-69
2022/12/11 11:53:39;;;;;;;28.55;6.18;;;16.60;88.70;;;;;;5031702;28;20063;-69
2022/12/11 11:56:44;;;;;;;32.33;5.78;;;16.40;86.50;;;;;;5034646;28;20064;-68
2022/12/11 12:00:08;;;;;;;21.40;5.63;;;16.50;89.30;;;;;;5034337;28;20388;-68
2022/12/11 12:03:19;;;;;;;29.63;6.75;;;16.50;89.60;;;;;;5034391;28;20044;-67
2022/12/11 12:06:34;;;;;;;29.65;5.63;;;16.50;90.10;;;;;;5034155;28;20152;-68
2022/12/11 12:10:03;;;;;;;27.08;5.85;;;16.50;86.10;;;;;;5034142;28;20133;-68
2022/12/11 12:13:25;;;;;;;26.45;4.78;;;16.50;85.80;;;;;;5034083;28;20053;-68
2022/12/11 12:17:05;;;;;;;26.58;5.07;;;16.60;88.60;;;;;;5034027;28;20045;-69
2022/12/11 12:20:39;;;;;;;27.58;5.72;;;16.60;86.90;;;;;;5034124;28;20048;-68
2022/12/11 12:23:58;;;;;;;26.88;5.65;;;16.60;88.90;;;;;;5033990;28;20409;-68
2022/12/11 12:27:20;;;;;;;20.85;5.65;;;16.60;87.30;;;;;;5034033;28;20044;-68
2022/12/11 12:30:29;;;;;;;26.45;5.38;;;16.60;88.00;;;;;;5033783;28;20041;-69
2022/12/11 12:34:03;;;;;;;18.55;4.57;;;16.70;87.30;;;;;;5033978;28;20049;-69
2022/12/11 12:37:45;;;;;;;29.10;5.60;;;16.80;86.90;;;;;;5034139;28;20056;-70
2022/12/11 12:41:12;;;;;;;24.85;5.72;;;16.70;85.50;;;;;;5034022;28;20393;-70
2022/12/11 12:44:20;;;;;;;35.15;6.10;;;16.50;86.40;;;;;;5033632;28;20045;-69
2022/12/11 12:47:32;;;;;;;21.20;5.68;;;16.40;87.50;;;;;;5033761;28;20408;-69
2022/12/11 12:50:41;;;;;;;26.38;6.13;;;16.30;87.20;;;;;;5033796;28;20049;-69
2022/12/11 12:53:55;;;;;;;23.38;5.65;;;16.30;90.10;;;;;;5033590;28;20053;-69
2022/12/11 12:57:03;;;;;;;24.20;5.97;;;16.20;88.90;;;;;;5033509;28;20056;-69
2022/12/11 13:00:09;;;;;;;31.52;6.32;;;16.20;90.40;;;;;;5033224;28;20040;-69
2022/12/11 13:03:20;;;;;;;28.63;6.72;;;16.20;90.40;;;;;;5032971;28;20044;-68
2022/12/11 13:06:40;;;;;;;34.35;7.38;;;16.20;90.50;;;;;;5032669;28;20420;-69
2022/12/11 13:10:06;;;;;;;34.30;9.07;;;16.20;91.10;;;;;;5031850;28;20046;-69
2022/12/11 13:13:46;;;;;;;31.73;8.00;;;16.10;90.30;;;;;;5033400;28;20051;-68
2022/12/11 13:16:51;;;;;;;28.02;6.38;;;16.10;90.50;;;;;;5012217;28;20200;-68
2022/12/11 13:20:17;;;;;;;24.67;6.18;;;16.00;90.60;;;;;;5033053;28;20045;-69
2022/12/11 13:23:29;;;;;;;25.85;7.13;;;16.10;90.10;;;;;;5032996;28;20052;-68
2022/12/11 13:26:33;;;;;;;20.25;5.65;;;16.00;88.20;;;;;;5033043;28;20052;-69
2022/12/11 13:29:39;;;;;;;47.97;20.98;;;16.10;89.10;;;;;;5032865;28;20058;-70
2022/12/11 13:33:14;;;;;;;34.90;7.85;;;16.20;88.30;;;;;;5032640;28;20072;-69
2022/12/11 13:36:30;;;;;;;26.10;6.90;;;16.20;89.70;;;;;;5032527;28;20401;-68
2022/12/11 13:39:38;;;;;;;35.03;6.38;;;16.30;89.20;;;;;;5032688;28;20045;-69
2022/12/11 13:42:59;;;;;;;27.20;6.50;;;16.20;89.00;;;;;;5032264;28;20060;-69
2022/12/11 13:46:08;;;;;;;33.43;6.97;;;16.20;87.10;;;;;;5032815;28;20056;-70
2022/12/11 13:49:22;;;;;;;24.98;6.53;;;16.10;89.00;;;;;;5032710;28;20060;-69
2022/12/11 13:52:27;;;;;;;21.85;6.28;;;16.00;90.00;;;;;;5032769;28;20068;-69
2022/12/11 13:55:33;;;;;;;30.02;6.32;;;16.00;88.80;;;;;;5031996;28;20052;-68
2022/12/11 13:58:38;;;;;;;39.13;9.35;;;15.90;89.50;;;;;;5032210;28;20485;-69
2022/12/11 14:01:42;;;;;;;27.02;6.93;;;15.80;88.90;;;;;;5032396;28;20532;-68
2022/12/11 14:04:48;;;;;;;27.35;6.85;;;15.80;89.50;;;;;;5031903;28;20068;-70
2022/12/11 14:07:55;;;;;;;24.30;6.75;;;15.90;89.30;;;;;;5032029;28;20381;-69
2022/12/11 14:11:00;;;;;;;23.13;6.15;;;15.80;87.30;;;;;;5031896;28;20044;-70
2022/12/11 14:14:26;;;;;;;33.72;7.15;;;15.80;89.60;;;;;;5019951;28;20064;-69
2022/12/11 14:17:32;;;;;;;29.85;7.03;;;15.80;90.40;;;;;;5031827;28;20056;-69
2022/12/11 14:20:37;;;;;;;29.92;6.30;;;15.70;88.60;;;;;;5031971;28;20048;-70
2022/12/11 14:23:54;;;;;;;35.50;7.82;;;15.70;90.10;;;;;;5032353;28;20284;-69
2022/12/11 14:26:58;;;;;;;30.23;7.25;;;15.60;88.30;;;;;;5032027;28;20401;-69
2022/12/11 14:30:10;;;;;;;27.10;7.63;;;15.60;89.10;;;;;;5031832;28;20056;-69
2022/12/11 14:33:15;;;;;;;;;;;15.60;88.80;;;;;;5031916;28;20041;-70
2022/12/11 14:36:21;;;;;;;40.63;7.18;;;15.60;88.20;;;;;;5030956;28;19916;-70
2022/12/11 14:39:27;;;;;;;30.63;6.53;;;15.50;86.60;;;;;;5031743;28;20053;-68
2022/12/11 14:42:38;;;;;;;34.42;8.70;;;15.50;87.70;;;;;;5031455;28;20044;-69
2022/12/11 14:45:47;;;;;;;34.33;6.45;;;15.40;87.60;;;;;;5031503;28;20060;-69
2022/12/11 14:49:05;;;;;;;29.10;7.30;;;15.40;88.50;;;;;;5032139;28;20045;-70
2022/12/11 14:52:17;;;;;;;41.30;9.27;;;15.40;88.70;;;;;;5031216;28;20045;-69
2022/12/11 14:55:31;;;;;;;25.48;6.80;;;15.30;89.30;;;;;;5031245;28;20057;-69
2022/12/11 14:58:48;;;;;;;42.10;8.70;;;15.30;89.60;;;;;;5031132;28;20044;-68
2022/12/11 15:02:20;;;;;;;36.67;9.70;;;15.30;89.40;;;;;;5031560;28;20088;-70
2022/12/11 15:05:24;;;;;;;78.60;23.38;;;15.30;89.30;;;;;;5031167;28;20056;-68
2022/12/11 15:08:38;;;;;;;41.97;11.25;;;15.30;88.50;;;;;;5031434;28;20397;-69
2022/12/11 15:11:41;;;;;;;30.90;6.13;;;15.20;90.10;;;;;;5031340;28;20048;-69
2022/12/11 15:14:49;;;;;;;28.23;5.32;;;15.20;90.00;;;;;;5030224;28;20405;-69
2022/12/11 15:17:53;;;;;;;29.35;8.30;;;15.10;88.80;;;;;;5031046;28;20049;-68
2022/12/11 15:21:08;;;;;;;29.63;7.30;;;15.10;89.30;;;;;;5031207;28;20045;-68
2022/12/11 15:24:32;;;;;;;41.22;8.38;;;15.10;90.20;;;;;;5031285;28;20040;-67
2022/12/11 15:27:38;;;;;;;24.33;6.38;;;15.10;90.00;;;;;;5031221;28;20044;-69
2022/12/11 15:30:42;;;;;;;25.55;7.10;;;15.00;90.00;;;;;;5035274;28;20043;-68
2022/12/11 15:33:47;;;;;;;26.63;7.60;;;15.00;90.00;;;;;;5034853;28;20044;-68
2022/12/11 15:36:51;;;;;;;28.33;7.90;;;14.90;90.40;;;;;;5034838;28;20230;-68
2022/12/11 15:39:56;;;;;;;31.00;7.40;;;14.90;90.20;;;;;;5034629;28;20044;-67
2022/12/11 15:43:02;;;;;;;26.55;6.05;;;14.90;90.10;;;;;;5034803;28;20512;-68
2022/12/11 15:46:06;;;;;;;23.45;7.13;;;14.90;90.50;;;;;;5034951;28;20068;-69
2022/12/11 15:49:12;;;;;;;26.67;6.82;;;14.90;90.20;;;;;;5035354;28;20484;-67
2022/12/11 15:52:16;;;;;;;27.25;7.25;;;14.90;89.80;;;;;;5034706;28;20040;-68
2022/12/11 15:55:21;;;;;;;23.20;6.03;;;14.80;89.70;;;;;;5034385;28;20060;-68
2022/12/11 15:58:26;;;;;;;18.98;6.70;;;14.80;90.10;;;;;;5034905;28;20091;-67
2022/12/11 16:01:30;;;;;;;21.73;6.05;;;14.70;90.50;;;;;;5034797;28;20045;-68
2022/12/11 16:04:33;;;;;;;30.42;7.45;;;14.70;89.70;;;;;;5034221;28;20220;-68
2022/12/11 16:07:39;;;;;;;20.30;5.78;;;14.70;89.80;;;;;;5034234;28;20048;-68
2022/12/11 16:10:44;;;;;;;27.08;6.78;;;14.60;90.00;;;;;;5034203;28;20044;-68
2022/12/11 16:13:48;;;;;;;24.73;6.93;;;14.60;90.00;;;;;;5034005;28;20500;-69
2022/12/11 16:16:52;;;;;;;27.75;6.25;;;14.60;90.00;;;;;;5034313;28;20700;-69
2022/12/11 16:19:56;;;;;;;20.95;6.50;;;14.60;88.50;;;;;;5034013;28;20061;-67
2022/12/11 16:23:00;;;;;;;29.67;6.00;;;14.60;89.30;;;;;;5034037;28;20053;-69